sensor_id;sensor_type;location;lat;lon;timestamp;temperature;humidity
61386;DHT22;47256;18.904;-99.054;2023-10-19T00:00:49;25.20;99.90
61386;DHT22;47256;18.904;-99.054;2023-10-19T00:03:17;25.20;99.90
61386;DHT22;47256;18.904;-99.054;2023-10-19T00:05:45;25.10;99.90
61386;DHT22;47256;18.904;-99.054;2023-10-19T00:08:16;25.10;99.90
61386;DHT22;47256;18.904;-99.054;2023-10-19T00:10:52;25.00;99.90
61386;DHT22;47256;18.904;-99.054;2023-10-19T00:13:42;25.00;99.90
61386;DHT22;47256;18.904;-99.054;2023-10-19T00:16:10;24.90;99.90
61386;DHT22;47256;18.904;-99.054;2023-10-19T00:18:49;24.90;99.90
61386;DHT22;47256;18.904;-99.054;2023-10-19T00:21:18;24.80;99.90
61386;DHT22;47256;18.904;-99.054;2023-10-19T00:23:52;24.80;99.90
61386;DHT22;47256;18.904;-99.054;2023-10-19T00:26:24;24.70;99.90
61386;DHT22;47256;18.904;-99.054;2023-10-19T00:28:58;24.70;99.90
61386;DHT22;47256;18.904;-99.054;2023-10-19T00:31:29;24.60;99.90
61386;DHT22;47256;18.904;-99.054;2023-10-19T00:34:00;24.60;99.90
61386;DHT22;47256;18.904;-99.054;2023-10-19T00:36:27;24.50;99.90
61386;DHT22;47256;18.904;-99.054;2023-10-19T00:38:57;24.50;99.90
61386;DHT22;47256;18.904;-99.054;2023-10-19T00:41:26;24.40;99.90
61386;DHT22;47256;18.904;-99.054;2023-10-19T00:44:00;24.30;99.90
61386;DHT22;47256;18.904;-99.054;2023-10-19T00:46:29;24.20;99.90
61386;DHT22;47256;18.904;-99.054;2023-10-19T00:49:05;24.20;99.90
61386;DHT22;47256;18.904;-99.054;2023-10-19T00:54:07;24.00;99.90
61386;DHT22;47256;18.904;-99.054;2023-10-19T00:56:37;24.00;99.90
61386;DHT22;47256;18.904;-99.054;2023-10-19T00:59:08;23.90;99.90
61386;DHT22;47256;18.904;-99.054;2023-10-19T01:01:41;23.90;99.90
61386;DHT22;47256;18.904;-99.054;2023-10-19T01:04:15;23.80;99.90
61386;DHT22;47256;18.904;-99.054;2023-10-19T01:06:49;23.80;99.90
61386;DHT22;47256;18.904;-99.054;2023-10-19T01:09:39;23.70;99.90
61386;DHT22;47256;18.904;-99.054;2023-10-19T01:12:06;23.70;99.90
61386;DHT22;47256;18.904;-99.054;2023-10-19T01:17:55;23.70;99.90
61386;DHT22;47256;18.904;-99.054;2023-10-19T01:20:30;23.60;99.90
61386;DHT22;47256;18.904;-99.054;2023-10-19T01:23:01;23.50;99.90
61386;DHT22;47256;18.904;-99.054;2023-10-19T01:28:36;23.40;99.90
61386;DHT22;47256;18.904;-99.054;2023-10-19T01:31:07;23.30;99.90
61386;DHT22;47256;18.904;-99.054;2023-10-19T01:33:34;23.30;99.90
61386;DHT22;47256;18.904;-99.054;2023-10-19T01:36:01;23.30;99.90
61386;DHT22;47256;18.904;-99.054;2023-10-19T01:38:37;23.30;99.90
61386;DHT22;47256;18.904;-99.054;2023-10-19T01:41:05;23.30;99.90
61386;DHT22;47256;18.904;-99.054;2023-10-19T01:43:40;23.30;99.90
61386;DHT22;47256;18.904;-99.054;2023-10-19T01:46:07;23.30;99.90
61386;DHT22;47256;18.904;-99.054;2023-10-19T01:48:43;23.30;99.90
61386;DHT22;47256;18.904;-99.054;2023-10-19T01:51:11;23.30;99.90
61386;DHT22;47256;18.904;-99.054;2023-10-19T01:53:40;23.30;99.90
61386;DHT22;47256;18.904;-99.054;2023-10-19T01:56:11;23.20;99.90
61386;DHT22;47256;18.904;-99.054;2023-10-19T01:58:39;23.20;99.90
61386;DHT22;47256;18.904;-99.054;2023-10-19T02:01:13;23.10;99.90
61386;DHT22;47256;18.904;-99.054;2023-10-19T02:03:43;23.00;99.90
61386;DHT22;47256;18.904;-99.054;2023-10-19T02:06:13;23.00;99.90
61386;DHT22;47256;18.904;-99.054;2023-10-19T02:08:48;22.90;99.90
61386;DHT22;47256;18.904;-99.054;2023-10-19T02:11:21;22.90;99.90
61386;DHT22;47256;18.904;-99.054;2023-10-19T02:13:49;22.90;99.90
61386;DHT22;47256;18.904;-99.054;2023-10-19T02:16:16;22.80;99.90
61386;DHT22;47256;18.904;-99.054;2023-10-19T02:18:46;22.80;99.90
61386;DHT22;47256;18.904;-99.054;2023-10-19T02:21:15;22.80;99.90
61386;DHT22;47256;18.904;-99.054;2023-10-19T02:23:45;22.90;99.90
61386;DHT22;47256;18.904;-99.054;2023-10-19T02:26:13;22.90;99.90
61386;DHT22;47256;18.904;-99.054;2023-10-19T02:28:40;22.90;99.90
61386;DHT22;47256;18.904;-99.054;2023-10-19T02:31:10;22.80;99.90
61386;DHT22;47256;18.904;-99.054;2023-10-19T02:33:46;22.70;99.90
61386;DHT22;47256;18.904;-99.054;2023-10-19T02:36:17;22.70;99.90
61386;DHT22;47256;18.904;-99.054;2023-10-19T02:38:46;22.60;99.90
61386;DHT22;47256;18.904;-99.054;2023-10-19T02:41:17;22.50;99.90
61386;DHT22;47256;18.904;-99.054;2023-10-19T02:43:47;22.50;99.90
61386;DHT22;47256;18.904;-99.054;2023-10-19T02:46:23;22.50;99.90
61386;DHT22;47256;18.904;-99.054;2023-10-19T02:48:50;22.60;99.90
61386;DHT22;47256;18.904;-99.054;2023-10-19T02:51:17;22.60;99.90
61386;DHT22;47256;18.904;-99.054;2023-10-19T02:53:45;22.60;99.90
61386;DHT22;47256;18.904;-99.054;2023-10-19T02:56:13;22.70;99.90
61386;DHT22;47256;18.904;-99.054;2023-10-19T02:58:43;22.70;99.90
61386;DHT22;47256;18.904;-99.054;2023-10-19T03:01:17;22.60;99.90
61386;DHT22;47256;18.904;-99.054;2023-10-19T03:03:48;22.60;99.90
61386;DHT22;47256;18.904;-99.054;2023-10-19T03:06:21;22.50;99.90
61386;DHT22;47256;18.904;-99.054;2023-10-19T03:08:49;22.50;99.90
61386;DHT22;47256;18.904;-99.054;2023-10-19T03:11:24;22.40;99.90
61386;DHT22;47256;18.904;-99.054;2023-10-19T03:13:54;22.30;99.90
61386;DHT22;47256;18.904;-99.054;2023-10-19T03:16:23;22.30;99.90
61386;DHT22;47256;18.904;-99.054;2023-10-19T03:18:58;22.30;99.90
61386;DHT22;47256;18.904;-99.054;2023-10-19T03:21:28;22.20;99.90
61386;DHT22;47256;18.904;-99.054;2023-10-19T03:23:59;22.20;99.90
61386;DHT22;47256;18.904;-99.054;2023-10-19T03:26:39;22.30;99.90
61386;DHT22;47256;18.904;-99.054;2023-10-19T03:29:16;22.20;99.90
61386;DHT22;47256;18.904;-99.054;2023-10-19T03:31:57;22.20;99.90
61386;DHT22;47256;18.904;-99.054;2023-10-19T03:34:27;22.20;99.90
61386;DHT22;47256;18.904;-99.054;2023-10-19T03:36:58;22.20;99.90
61386;DHT22;47256;18.904;-99.054;2023-10-19T03:39:39;22.20;99.90
61386;DHT22;47256;18.904;-99.054;2023-10-19T03:42:06;22.20;99.90
61386;DHT22;47256;18.904;-99.054;2023-10-19T03:44:35;22.20;99.90
61386;DHT22;47256;18.904;-99.054;2023-10-19T03:47:14;22.20;99.90
61386;DHT22;47256;18.904;-99.054;2023-10-19T03:49:48;22.10;99.90
61386;DHT22;47256;18.904;-99.054;2023-10-19T03:52:15;22.10;99.90
61386;DHT22;47256;18.904;-99.054;2023-10-19T03:54:43;22.10;99.90
61386;DHT22;47256;18.904;-99.054;2023-10-19T03:57:16;22.10;99.90
61386;DHT22;47256;18.904;-99.054;2023-10-19T03:59:46;22.10;99.90
61386;DHT22;47256;18.904;-99.054;2023-10-19T04:02:16;22.10;99.90
61386;DHT22;47256;18.904;-99.054;2023-10-19T04:04:53;22.10;99.90
61386;DHT22;47256;18.904;-99.054;2023-10-19T04:07:21;22.10;99.90
61386;DHT22;47256;18.904;-99.054;2023-10-19T04:09:49;22.00;99.90
61386;DHT22;47256;18.904;-99.054;2023-10-19T04:12:37;21.90;99.90
61386;DHT22;47256;18.904;-99.054;2023-10-19T04:15:05;21.70;99.90
61386;DHT22;47256;18.904;-99.054;2023-10-19T04:17:47;21.70;99.90
61386;DHT22;47256;18.904;-99.054;2023-10-19T04:20:18;21.60;99.90
61386;DHT22;47256;18.904;-99.054;2023-10-19T04:22:47;21.60;99.90
61386;DHT22;47256;18.904;-99.054;2023-10-19T04:25:16;21.50;99.90
61386;DHT22;47256;18.904;-99.054;2023-10-19T04:27:53;21.40;99.90
61386;DHT22;47256;18.904;-99.054;2023-10-19T04:30:20;21.40;99.90
61386;DHT22;47256;18.904;-99.054;2023-10-19T04:32:53;21.50;99.90
61386;DHT22;47256;18.904;-99.054;2023-10-19T04:35:23;21.50;99.90
61386;DHT22;47256;18.904;-99.054;2023-10-19T04:37:50;21.50;99.90
61386;DHT22;47256;18.904;-99.054;2023-10-19T04:40:22;21.50;99.90
61386;DHT22;47256;18.904;-99.054;2023-10-19T04:42:52;21.50;99.90
61386;DHT22;47256;18.904;-99.054;2023-10-19T04:45:19;21.50;99.90
61386;DHT22;47256;18.904;-99.054;2023-10-19T04:47:50;21.50;99.90
61386;DHT22;47256;18.904;-99.054;2023-10-19T04:50:18;21.40;99.90
61386;DHT22;47256;18.904;-99.054;2023-10-19T04:52:45;21.40;99.90
61386;DHT22;47256;18.904;-99.054;2023-10-19T04:55:12;21.40;99.90
61386;DHT22;47256;18.904;-99.054;2023-10-19T04:57:39;21.30;99.90
61386;DHT22;47256;18.904;-99.054;2023-10-19T05:00:06;21.30;99.90
61386;DHT22;47256;18.904;-99.054;2023-10-19T05:02:39;21.30;99.90
61386;DHT22;47256;18.904;-99.054;2023-10-19T05:05:07;21.30;99.90
61386;DHT22;47256;18.904;-99.054;2023-10-19T05:07:35;21.30;99.90
61386;DHT22;47256;18.904;-99.054;2023-10-19T05:10:02;21.20;99.90
61386;DHT22;47256;18.904;-99.054;2023-10-19T05:12:31;21.20;99.90
61386;DHT22;47256;18.904;-99.054;2023-10-19T05:14:58;21.20;99.90
61386;DHT22;47256;18.904;-99.054;2023-10-19T05:17:25;21.30;99.90
61386;DHT22;47256;18.904;-99.054;2023-10-19T05:19:53;21.30;99.90
61386;DHT22;47256;18.904;-99.054;2023-10-19T05:22:20;21.30;99.90
61386;DHT22;47256;18.904;-99.054;2023-10-19T05:24:51;21.30;99.90
61386;DHT22;47256;18.904;-99.054;2023-10-19T05:27:18;21.20;99.90
61386;DHT22;47256;18.904;-99.054;2023-10-19T05:29:46;21.20;99.90
61386;DHT22;47256;18.904;-99.054;2023-10-19T05:32:13;21.20;99.90
61386;DHT22;47256;18.904;-99.054;2023-10-19T05:34:40;21.20;99.90
61386;DHT22;47256;18.904;-99.054;2023-10-19T05:37:07;21.20;99.90
61386;DHT22;47256;18.904;-99.054;2023-10-19T05:39:35;21.20;99.90
61386;DHT22;47256;18.904;-99.054;2023-10-19T05:42:02;21.10;99.90
61386;DHT22;47256;18.904;-99.054;2023-10-19T05:44:30;21.00;99.90
61386;DHT22;47256;18.904;-99.054;2023-10-19T05:46:57;21.00;99.90
61386;DHT22;47256;18.904;-99.054;2023-10-19T05:49:24;21.00;99.90
61386;DHT22;47256;18.904;-99.054;2023-10-19T05:51:51;21.10;99.90
61386;DHT22;47256;18.904;-99.054;2023-10-19T05:54:18;21.10;99.90
61386;DHT22;47256;18.904;-99.054;2023-10-19T05:56:45;21.10;99.90
61386;DHT22;47256;18.904;-99.054;2023-10-19T05:59:12;21.00;99.90
61386;DHT22;47256;18.904;-99.054;2023-10-19T06:01:42;21.00;99.90
61386;DHT22;47256;18.904;-99.054;2023-10-19T06:04:13;21.00;99.90
61386;DHT22;47256;18.904;-99.054;2023-10-19T06:06:40;20.90;99.90
61386;DHT22;47256;18.904;-99.054;2023-10-19T06:09:07;20.90;99.90
61386;DHT22;47256;18.904;-99.054;2023-10-19T06:11:35;20.90;99.90
61386;DHT22;47256;18.904;-99.054;2023-10-19T06:14:04;20.90;99.90
61386;DHT22;47256;18.904;-99.054;2023-10-19T06:16:34;20.90;99.90
61386;DHT22;47256;18.904;-99.054;2023-10-19T06:19:00;20.80;99.90
61386;DHT22;47256;18.904;-99.054;2023-10-19T06:21:53;20.80;99.90
61386;DHT22;47256;18.904;-99.054;2023-10-19T06:24:21;20.90;99.90
61386;DHT22;47256;18.904;-99.054;2023-10-19T06:26:53;20.90;99.90
61386;DHT22;47256;18.904;-99.054;2023-10-19T06:29:20;20.80;99.90
61386;DHT22;47256;18.904;-99.054;2023-10-19T06:31:53;20.90;99.90
61386;DHT22;47256;18.904;-99.054;2023-10-19T06:34:21;20.90;99.90
61386;DHT22;47256;18.904;-99.054;2023-10-19T06:36:48;20.90;99.90
61386;DHT22;47256;18.904;-99.054;2023-10-19T06:39:16;20.90;99.90
61386;DHT22;47256;18.904;-99.054;2023-10-19T06:41:44;20.70;99.90
61386;DHT22;47256;18.904;-99.054;2023-10-19T06:44:14;20.70;99.90
61386;DHT22;47256;18.904;-99.054;2023-10-19T06:46:44;20.60;99.90
61386;DHT22;47256;18.904;-99.054;2023-10-19T06:49:12;20.70;99.90
61386;DHT22;47256;18.904;-99.054;2023-10-19T06:51:39;20.60;99.90
61386;DHT22;47256;18.904;-99.054;2023-10-19T06:54:06;20.60;99.90
61386;DHT22;47256;18.904;-99.054;2023-10-19T06:56:34;20.50;99.90
61386;DHT22;47256;18.904;-99.054;2023-10-19T06:59:03;20.40;99.90
61386;DHT22;47256;18.904;-99.054;2023-10-19T07:01:34;20.30;99.90
61386;DHT22;47256;18.904;-99.054;2023-10-19T07:04:05;20.40;99.90
61386;DHT22;47256;18.904;-99.054;2023-10-19T07:06:32;20.40;99.90
61386;DHT22;47256;18.904;-99.054;2023-10-19T07:08:59;20.30;99.90
61386;DHT22;47256;18.904;-99.054;2023-10-19T07:11:25;20.30;99.90
61386;DHT22;47256;18.904;-99.054;2023-10-19T07:13:53;20.30;99.90
61386;DHT22;47256;18.904;-99.054;2023-10-19T07:16:19;20.30;99.90
61386;DHT22;47256;18.904;-99.054;2023-10-19T07:18:46;20.30;99.90
61386;DHT22;47256;18.904;-99.054;2023-10-19T07:21:13;20.30;99.90
61386;DHT22;47256;18.904;-99.054;2023-10-19T07:23:41;20.10;99.90
61386;DHT22;47256;18.904;-99.054;2023-10-19T07:26:10;20.00;99.90
61386;DHT22;47256;18.904;-99.054;2023-10-19T07:28:40;20.00;99.90
61386;DHT22;47256;18.904;-99.054;2023-10-19T07:31:08;20.00;99.90
61386;DHT22;47256;18.904;-99.054;2023-10-19T07:33:39;20.10;99.90
61386;DHT22;47256;18.904;-99.054;2023-10-19T07:36:12;20.10;99.90
61386;DHT22;47256;18.904;-99.054;2023-10-19T07:38:40;20.10;99.90
61386;DHT22;47256;18.904;-99.054;2023-10-19T07:41:11;19.90;99.90
61386;DHT22;47256;18.904;-99.054;2023-10-19T07:43:38;19.80;99.90
61386;DHT22;47256;18.904;-99.054;2023-10-19T07:46:05;19.90;99.90
61386;DHT22;47256;18.904;-99.054;2023-10-19T07:48:34;19.90;99.90
61386;DHT22;47256;18.904;-99.054;2023-10-19T07:51:01;19.90;99.90
61386;DHT22;47256;18.904;-99.054;2023-10-19T07:53:28;19.80;99.90
61386;DHT22;47256;18.904;-99.054;2023-10-19T07:55:55;19.70;99.90
61386;DHT22;47256;18.904;-99.054;2023-10-19T07:58:23;19.80;99.90
61386;DHT22;47256;18.904;-99.054;2023-10-19T08:00:50;19.90;99.90
61386;DHT22;47256;18.904;-99.054;2023-10-19T08:03:19;20.00;99.90
61386;DHT22;47256;18.904;-99.054;2023-10-19T08:05:48;20.00;99.90
61386;DHT22;47256;18.904;-99.054;2023-10-19T08:08:15;20.10;99.90
61386;DHT22;47256;18.904;-99.054;2023-10-19T08:10:42;20.00;99.90
61386;DHT22;47256;18.904;-99.054;2023-10-19T08:13:09;20.00;99.90
61386;DHT22;47256;18.904;-99.054;2023-10-19T08:15:39;20.00;99.90
61386;DHT22;47256;18.904;-99.054;2023-10-19T08:18:06;20.00;99.90
61386;DHT22;47256;18.904;-99.054;2023-10-19T08:20:33;20.00;99.90
61386;DHT22;47256;18.904;-99.054;2023-10-19T08:23:03;20.00;99.90
61386;DHT22;47256;18.904;-99.054;2023-10-19T08:25:32;20.00;99.90
61386;DHT22;47256;18.904;-99.054;2023-10-19T08:27:59;20.00;99.90
61386;DHT22;47256;18.904;-99.054;2023-10-19T08:30:28;19.90;99.90
61386;DHT22;47256;18.904;-99.054;2023-10-19T08:32:54;19.90;99.90
61386;DHT22;47256;18.904;-99.054;2023-10-19T08:35:24;19.80;99.90
61386;DHT22;47256;18.904;-99.054;2023-10-19T08:37:51;19.70;99.90
61386;DHT22;47256;18.904;-99.054;2023-10-19T08:40:19;19.80;99.90
61386;DHT22;47256;18.904;-99.054;2023-10-19T08:42:47;19.80;99.90
61386;DHT22;47256;18.904;-99.054;2023-10-19T08:45:17;19.80;99.90
61386;DHT22;47256;18.904;-99.054;2023-10-19T08:50:24;19.90;99.90
61386;DHT22;47256;18.904;-99.054;2023-10-19T08:52:55;20.00;99.90
61386;DHT22;47256;18.904;-99.054;2023-10-19T08:55:23;20.00;99.90
61386;DHT22;47256;18.904;-99.054;2023-10-19T08:57:50;20.00;99.90
61386;DHT22;47256;18.904;-99.054;2023-10-19T09:00:17;20.00;99.90
61386;DHT22;47256;18.904;-99.054;2023-10-19T09:02:48;20.00;99.90
61386;DHT22;47256;18.904;-99.054;2023-10-19T09:05:15;20.00;99.90
61386;DHT22;47256;18.904;-99.054;2023-10-19T09:07:56;19.90;99.90
61386;DHT22;47256;18.904;-99.054;2023-10-19T09:10:23;19.80;99.90
61386;DHT22;47256;18.904;-99.054;2023-10-19T09:13:02;19.70;99.90
61386;DHT22;47256;18.904;-99.054;2023-10-19T09:15:30;19.70;99.90
61386;DHT22;47256;18.904;-99.054;2023-10-19T09:18:19;19.80;99.90
61386;DHT22;47256;18.904;-99.054;2023-10-19T09:20:48;19.80;99.90
61386;DHT22;47256;18.904;-99.054;2023-10-19T09:23:38;19.90;99.90
61386;DHT22;47256;18.904;-99.054;2023-10-19T09:26:05;19.80;99.90
61386;DHT22;47256;18.904;-99.054;2023-10-19T09:28:34;19.80;99.90
61386;DHT22;47256;18.904;-99.054;2023-10-19T09:31:02;19.70;99.90
61386;DHT22;47256;18.904;-99.054;2023-10-19T09:33:30;19.70;99.90
61386;DHT22;47256;18.904;-99.054;2023-10-19T09:35:59;19.80;99.90
61386;DHT22;47256;18.904;-99.054;2023-10-19T09:38:27;19.80;99.90
61386;DHT22;47256;18.904;-99.054;2023-10-19T09:40:54;19.60;99.90
61386;DHT22;47256;18.904;-99.054;2023-10-19T09:43:23;19.50;99.90
61386;DHT22;47256;18.904;-99.054;2023-10-19T09:45:53;19.50;99.90
61386;DHT22;47256;18.904;-99.054;2023-10-19T09:48:25;19.50;99.90
61386;DHT22;47256;18.904;-99.054;2023-10-19T09:50:55;19.50;99.90
61386;DHT22;47256;18.904;-99.054;2023-10-19T09:53:28;19.60;99.90
61386;DHT22;47256;18.904;-99.054;2023-10-19T09:55:57;19.60;99.90
61386;DHT22;47256;18.904;-99.054;2023-10-19T09:58:28;19.60;99.90
61386;DHT22;47256;18.904;-99.054;2023-10-19T10:00:59;19.50;99.90
61386;DHT22;47256;18.904;-99.054;2023-10-19T10:03:46;19.40;99.90
61386;DHT22;47256;18.904;-99.054;2023-10-19T10:06:15;19.30;99.90
61386;DHT22;47256;18.904;-99.054;2023-10-19T10:08:43;19.40;99.90
61386;DHT22;47256;18.904;-99.054;2023-10-19T10:11:28;19.30;99.90
61386;DHT22;47256;18.904;-99.054;2023-10-19T10:13:57;19.30;99.90
61386;DHT22;47256;18.904;-99.054;2023-10-19T10:16:26;19.40;99.90
61386;DHT22;47256;18.904;-99.054;2023-10-19T10:18:54;19.50;99.90
61386;DHT22;47256;18.904;-99.054;2023-10-19T10:21:23;19.50;99.90
61386;DHT22;47256;18.904;-99.054;2023-10-19T10:23:54;19.60;99.90
61386;DHT22;47256;18.904;-99.054;2023-10-19T10:26:24;19.60;99.90
61386;DHT22;47256;18.904;-99.054;2023-10-19T10:31:44;19.50;99.90
61386;DHT22;47256;18.904;-99.054;2023-10-19T10:34:11;19.30;99.90
61386;DHT22;47256;18.904;-99.054;2023-10-19T10:37:00;19.40;99.90
61386;DHT22;47256;18.904;-99.054;2023-10-19T10:39:31;19.40;99.90
61386;DHT22;47256;18.904;-99.054;2023-10-19T10:41:59;19.50;99.90
61386;DHT22;47256;18.904;-99.054;2023-10-19T10:44:38;19.40;99.90
61386;DHT22;47256;18.904;-99.054;2023-10-19T10:47:06;19.30;99.90
61386;DHT22;47256;18.904;-99.054;2023-10-19T10:49:48;19.20;99.90
61386;DHT22;47256;18.904;-99.054;2023-10-19T10:52:34;19.10;99.90
61386;DHT22;47256;18.904;-99.054;2023-10-19T10:57:35;19.10;99.90
61386;DHT22;47256;18.904;-99.054;2023-10-19T11:00:03;19.20;99.90
61386;DHT22;47256;18.904;-99.054;2023-10-19T11:02:32;19.30;99.90
61386;DHT22;47256;18.904;-99.054;2023-10-19T11:04:59;19.30;99.90
61386;DHT22;47256;18.904;-99.054;2023-10-19T11:07:27;19.30;99.90
61386;DHT22;47256;18.904;-99.054;2023-10-19T11:09:53;19.30;99.90
61386;DHT22;47256;18.904;-99.054;2023-10-19T11:12:21;19.40;99.90
61386;DHT22;47256;18.904;-99.054;2023-10-19T11:14:54;19.40;99.90
61386;DHT22;47256;18.904;-99.054;2023-10-19T11:17:22;19.40;99.90
61386;DHT22;47256;18.904;-99.054;2023-10-19T11:19:57;19.40;99.90
61386;DHT22;47256;18.904;-99.054;2023-10-19T11:22:26;19.40;99.90
61386;DHT22;47256;18.904;-99.054;2023-10-19T11:24:53;19.40;99.90
61386;DHT22;47256;18.904;-99.054;2023-10-19T11:27:27;19.40;99.90
61386;DHT22;47256;18.904;-99.054;2023-10-19T11:29:58;19.50;99.90
61386;DHT22;47256;18.904;-99.054;2023-10-19T11:32:25;19.50;99.90
61386;DHT22;47256;18.904;-99.054;2023-10-19T11:34:55;19.50;99.90
61386;DHT22;47256;18.904;-99.054;2023-10-19T11:37:22;19.50;99.90
61386;DHT22;47256;18.904;-99.054;2023-10-19T11:39:50;19.50;99.90
61386;DHT22;47256;18.904;-99.054;2023-10-19T11:42:19;19.50;99.90
61386;DHT22;47256;18.904;-99.054;2023-10-19T11:44:46;19.50;99.90
61386;DHT22;47256;18.904;-99.054;2023-10-19T11:47:13;19.30;99.90
61386;DHT22;47256;18.904;-99.054;2023-10-19T11:49:41;19.20;99.90
61386;DHT22;47256;18.904;-99.054;2023-10-19T11:52:08;19.20;99.90
61386;DHT22;47256;18.904;-99.054;2023-10-19T11:54:35;19.10;99.90
61386;DHT22;47256;18.904;-99.054;2023-10-19T11:57:01;19.10;99.90
61386;DHT22;47256;18.904;-99.054;2023-10-19T11:59:28;19.20;99.90
61386;DHT22;47256;18.904;-99.054;2023-10-19T12:01:56;19.10;99.90
61386;DHT22;47256;18.904;-99.054;2023-10-19T12:04:25;19.10;99.90
61386;DHT22;47256;18.904;-99.054;2023-10-19T12:06:52;19.10;99.90
61386;DHT22;47256;18.904;-99.054;2023-10-19T12:09:19;19.20;99.90
61386;DHT22;47256;18.904;-99.054;2023-10-19T12:11:50;19.20;99.90
61386;DHT22;47256;18.904;-99.054;2023-10-19T12:14:20;19.30;99.90
61386;DHT22;47256;18.904;-99.054;2023-10-19T12:16:47;19.30;99.90
61386;DHT22;47256;18.904;-99.054;2023-10-19T12:19:14;19.30;99.90
61386;DHT22;47256;18.904;-99.054;2023-10-19T12:21:43;19.10;99.90
61386;DHT22;47256;18.904;-99.054;2023-10-19T12:24:11;19.00;99.90
61386;DHT22;47256;18.904;-99.054;2023-10-19T12:26:38;19.00;99.90
61386;DHT22;47256;18.904;-99.054;2023-10-19T12:29:06;19.10;99.90
61386;DHT22;47256;18.904;-99.054;2023-10-19T12:31:37;19.10;99.90
61386;DHT22;47256;18.904;-99.054;2023-10-19T12:34:08;19.10;99.90
61386;DHT22;47256;18.904;-99.054;2023-10-19T12:36:37;19.10;99.90
61386;DHT22;47256;18.904;-99.054;2023-10-19T12:39:05;19.20;99.90
61386;DHT22;47256;18.904;-99.054;2023-10-19T12:41:32;19.20;99.90
61386;DHT22;47256;18.904;-99.054;2023-10-19T12:43:59;19.20;99.90
61386;DHT22;47256;18.904;-99.054;2023-10-19T12:46:34;19.20;99.90
61386;DHT22;47256;18.904;-99.054;2023-10-19T12:49:05;19.20;99.90
61386;DHT22;47256;18.904;-99.054;2023-10-19T12:51:40;19.20;99.90
61386;DHT22;47256;18.904;-99.054;2023-10-19T12:54:08;19.20;99.90
61386;DHT22;47256;18.904;-99.054;2023-10-19T12:56:36;19.20;99.90
61386;DHT22;47256;18.904;-99.054;2023-10-19T12:59:05;19.30;99.90
61386;DHT22;47256;18.904;-99.054;2023-10-19T13:01:34;19.30;99.90
61386;DHT22;47256;18.904;-99.054;2023-10-19T13:04:26;19.30;99.90
61386;DHT22;47256;18.904;-99.054;2023-10-19T13:06:58;19.30;99.90
61386;DHT22;47256;18.904;-99.054;2023-10-19T13:09:25;19.30;99.90
61386;DHT22;47256;18.904;-99.054;2023-10-19T13:12:02;19.40;99.90
61386;DHT22;47256;18.904;-99.054;2023-10-19T13:14:33;19.40;99.90
61386;DHT22;47256;18.904;-99.054;2023-10-19T13:17:01;19.40;99.90
61386;DHT22;47256;18.904;-99.054;2023-10-19T13:19:28;19.40;99.90
61386;DHT22;47256;18.904;-99.054;2023-10-19T13:21:56;19.50;99.90
61386;DHT22;47256;18.904;-99.054;2023-10-19T13:24:27;19.50;99.90
61386;DHT22;47256;18.904;-99.054;2023-10-19T13:26:57;19.50;99.90
61386;DHT22;47256;18.904;-99.054;2023-10-19T13:29:25;19.50;99.90
61386;DHT22;47256;18.904;-99.054;2023-10-19T13:31:53;19.50;99.90
61386;DHT22;47256;18.904;-99.054;2023-10-19T13:34:22;19.60;99.90
61386;DHT22;47256;18.904;-99.054;2023-10-19T13:36:49;19.60;99.90
61386;DHT22;47256;18.904;-99.054;2023-10-19T13:39:17;19.70;99.90
61386;DHT22;47256;18.904;-99.054;2023-10-19T13:41:44;19.70;99.90
61386;DHT22;47256;18.904;-99.054;2023-10-19T13:44:12;19.70;99.90
61386;DHT22;47256;18.904;-99.054;2023-10-19T13:46:39;19.70;99.90
61386;DHT22;47256;18.904;-99.054;2023-10-19T13:49:06;19.70;99.90
61386;DHT22;47256;18.904;-99.054;2023-10-19T13:51:33;19.70;99.90
61386;DHT22;47256;18.904;-99.054;2023-10-19T13:54:00;19.80;99.90
61386;DHT22;47256;18.904;-99.054;2023-10-19T13:56:27;19.80;99.90
61386;DHT22;47256;18.904;-99.054;2023-10-19T13:58:54;19.80;99.90
61386;DHT22;47256;18.904;-99.054;2023-10-19T14:01:21;19.80;99.90
61386;DHT22;47256;18.904;-99.054;2023-10-19T14:03:52;19.90;99.90
61386;DHT22;47256;18.904;-99.054;2023-10-19T14:06:21;19.80;99.90
61386;DHT22;47256;18.904;-99.054;2023-10-19T14:08:49;19.90;99.90
61386;DHT22;47256;18.904;-99.054;2023-10-19T14:11:15;19.90;99.90
61386;DHT22;47256;18.904;-99.054;2023-10-19T14:13:42;19.90;99.90
61386;DHT22;47256;18.904;-99.054;2023-10-19T14:16:10;19.90;99.90
61386;DHT22;47256;18.904;-99.054;2023-10-19T14:18:37;20.00;99.90
61386;DHT22;47256;18.904;-99.054;2023-10-19T14:21:17;20.00;99.90
61386;DHT22;47256;18.904;-99.054;2023-10-19T14:23:47;20.00;99.90
61386;DHT22;47256;18.904;-99.054;2023-10-19T14:26:14;20.10;99.90
61386;DHT22;47256;18.904;-99.054;2023-10-19T14:28:42;20.20;99.90
61386;DHT22;47256;18.904;-99.054;2023-10-19T14:31:09;20.30;99.90
61386;DHT22;47256;18.904;-99.054;2023-10-19T14:33:37;20.30;99.90
61386;DHT22;47256;18.904;-99.054;2023-10-19T14:36:04;20.40;99.90
61386;DHT22;47256;18.904;-99.054;2023-10-19T14:38:31;20.50;99.90
61386;DHT22;47256;18.904;-99.054;2023-10-19T14:40:58;20.60;99.90
61386;DHT22;47256;18.904;-99.054;2023-10-19T14:43:25;20.70;99.90
61386;DHT22;47256;18.904;-99.054;2023-10-19T14:45:58;20.80;99.90
61386;DHT22;47256;18.904;-99.054;2023-10-19T14:48:25;20.90;99.90
61386;DHT22;47256;18.904;-99.054;2023-10-19T14:50:55;21.00;99.90
61386;DHT22;47256;18.904;-99.054;2023-10-19T14:53:23;21.00;99.90
61386;DHT22;47256;18.904;-99.054;2023-10-19T14:55:50;21.20;99.90
61386;DHT22;47256;18.904;-99.054;2023-10-19T14:58:17;21.20;99.90
61386;DHT22;47256;18.904;-99.054;2023-10-19T15:00:44;21.40;99.90
61386;DHT22;47256;18.904;-99.054;2023-10-19T15:03:15;21.60;99.90
61386;DHT22;47256;18.904;-99.054;2023-10-19T15:05:42;21.80;99.90
61386;DHT22;47256;18.904;-99.054;2023-10-19T15:08:10;22.10;99.90
61386;DHT22;47256;18.904;-99.054;2023-10-19T15:10:40;22.10;99.90
61386;DHT22;47256;18.904;-99.054;2023-10-19T15:13:08;22.20;99.90
61386;DHT22;47256;18.904;-99.054;2023-10-19T15:15:35;22.30;99.90
61386;DHT22;47256;18.904;-99.054;2023-10-19T15:18:02;22.50;99.90
61386;DHT22;47256;18.904;-99.054;2023-10-19T15:20:30;22.60;99.90
61386;DHT22;47256;18.904;-99.054;2023-10-19T15:22:59;22.70;99.90
61386;DHT22;47256;18.904;-99.054;2023-10-19T15:25:26;22.90;99.90
61386;DHT22;47256;18.904;-99.054;2023-10-19T15:27:54;23.10;99.90
61386;DHT22;47256;18.904;-99.054;2023-10-19T15:30:21;23.20;99.90
61386;DHT22;47256;18.904;-99.054;2023-10-19T15:32:49;23.40;99.90
61386;DHT22;47256;18.904;-99.054;2023-10-19T15:35:17;23.50;99.90